This is the latest recevied weather packets stored in our database for station/object HK6RM-19. If no packets are shown the sender has not sent any weather packets the latest 10 day(s).
| Time | Temp. | Humidity | Pressure | Rain* | Wind** | Luminosity | Snow |
|---|---|---|---|---|---|---|---|
| 1787674027 | 21.11° C | 68% | 1013 hPa | 0 mm | - | - | - |
| 1787673187 | 21.11° C | 68% | 1013 hPa | 0 mm | - | - | - |
| 1787672346 | 20° C | 70% | 1014 hPa | 0 mm | - | - | - |
| 1787671505 | 20° C | 70% | 1014 hPa | 0 mm | - | - | - |
| 1787670665 | 19.44° C | 72% | 1014 hPa | 0 mm | - | - | - |
| 1787669825 | 19.44° C | 72% | 1014 hPa | 0 mm | - | - | - |
| 1787668984 | 19.44° C | 67% | 1014 hPa | 0 mm | - | - | - |
| 1787668144 | 19.44° C | 66% | 1015 hPa | 0 mm | - | - | - |
| 1787667303 | 20° C | 65% | 1015 hPa | 0 mm | - | - | - |
| 1787666463 | 20° C | 64% | 1015 hPa | 0 mm | - | - | - |
| 1787665622 | 20° C | 64% | 1015 hPa | 0 mm | - | - | - |
| 1787664782 | 16.11° C | 72% | 1015 hPa | 0 mm | - | - | - |
| 1787663941 | 16.11° C | 72% | 1016 hPa | 0 mm | - | - | - |
| 1787663100 | 16.11° C | 72% | 1016 hPa | 0 mm | - | - | - |
| 1787662260 | 16.11° C | 72% | 1016 hPa | 0 mm | - | - | - |
| 1787661420 | 15° C | 77% | 1016 hPa | 0 mm | - | - | - |
| 1787660579 | 15° C | 77% | 1016 hPa | 0 mm | - | - | - |
| 1787659739 | 15° C | 77% | 1016 hPa | 0 mm | - | - | - |
| 1787658898 | 15° C | 77% | 1016 hPa | 0 mm | - | - | - |
| 1787658058 | 11.67° C | 77% | 1016 hPa | 0 mm | - | - | - |
| 1787657217 | 11.67° C | 77% | 1016 hPa | 0 mm | - | - | - |
| 1787656377 | 11.67° C | 77% | 1016 hPa | 0 mm | - | - | - |
| 1787655536 | 11.67° C | 77% | 1016 hPa | 0 mm | - | - | - |
| 1787654696 | 11.67° C | 77% | 1016 hPa | 0 mm | - | - | - |
| 1787653855 | 11.67° C | 77% | 1016 hPa | 0 mm | - | - | - |
* Rain latest hour (hover to see other rain measurements)
** Current wind speed in m/s (hover to see current wind gust speed)